Time;durP1;ratioP1;P1;durP2;ratioP2;P2;SDS_P1;SDS_P2;PMS_P1;PMS_P2;Temp;Humidity;BMP_temperature;BMP_pressure;BME280_temperature;BME280_humidity;BME280_pressure;Samples;Min_cycle;Max_cycle;Signal;HPM_P1;HPM_P2
2021/12/14 00:01:34;;;;;;;;;;;;;;;;;;5140674;27;19923;-75
2021/12/14 00:04:00;;;;;;;;;;;;;;;;;;5143830;27;20281;-75
2021/12/14 00:06:26;;;;;;;;;;;;;;;;;;5111110;27;19927;-75
2021/12/14 00:08:57;;;;;;;;;;;;;;;;;;5105346;28;19928;-75
2021/12/14 00:11:34;;;;;;;;;;;;;;;;;;5110252;28;19924;-74
2021/12/14 00:14:24;;;;;;;;;;;;;;;;;;5106860;28;19926;-75
2021/12/14 00:16:46;;;;;;;;;;;;;;;;;;5097490;28;19920;-75
2021/12/14 00:19:12;;;;;;;;;;;;;;;;;;5090194;28;20386;-75
2021/12/14 00:21:38;;;;;;;;;;;;;;;;;;5105674;28;20278;-76
2021/12/14 00:24:07;;;;;;;;;;;;;;;;;;5108651;28;19973;-75
2021/12/14 00:26:33;;;;;;;;;;;;;;;;;;5106570;28;20466;-75
2021/12/14 00:28:59;;;;;;;;;;;;;;;;;;5108324;27;20002;-75
2021/12/14 00:31:25;;;;;;;;;;;;;;;;;;5095165;28;20362;-75
2021/12/14 00:33:51;;;;;;;;;;;;;;;;;;5112381;27;19925;-75
2021/12/14 00:36:17;;;;;;;;;;;;;;;;;;5106704;27;19920;-78
2021/12/14 00:38:43;;;;;;;;;;;;;;;;;;5094868;28;20121;-76
2021/12/14 00:41:09;;;;;;;;;;;;;;;;;;5107760;28;19920;-75
2021/12/14 00:43:35;;;;;;;;;;;;;;;;;;5108479;28;19929;-75
2021/12/14 00:46:01;;;;;;;;;;;;;;;;;;5108707;28;19963;-75
2021/12/14 00:48:27;;;;;;;;;;;;;;;;;;5105863;28;20165;-75
2021/12/14 00:50:53;;;;;;;;;;;;;;;;;;5106066;28;19927;-75
2021/12/14 00:53:19;;;;;;;;;;;;;;;;;;5109391;28;19927;-75
2021/12/14 00:55:45;;;;;;;;;;;;;;;;;;5105883;28;20274;-75
2021/12/14 00:58:11;;;;;;;;;;;;;;;;;;5107250;28;19920;-76
2021/12/14 01:00:37;;;;;;;;;;;;;;;;;;5129031;27;19931;-75
2021/12/14 01:03:03;;;;;;;;;;;;;;;;;;5106660;27;19920;-75
2021/12/14 01:05:31;;;;;;;;;;;;;;;;;;5100220;27;20388;-75
2021/12/14 01:07:57;;;;;;;;;;;;;;;;;;5110760;27;19919;-75
2021/12/14 01:10:23;;;;;;;;;;;;;;;;;;5112847;27;19926;-75
2021/12/14 01:12:53;;;;;;;;;;;;;;;;;;5127441;27;19926;-75
2021/12/14 01:15:25;;;;;;;;;;;;;;;;;;5109087;27;19919;-76
2021/12/14 01:18:12;;;;;;;;;;;;;;;;;;5111340;27;19919;-76
2021/12/14 01:20:41;;;;;;;;;;;;;;;;;;5123604;27;19927;-75
2021/12/14 01:23:16;;;;;;;;;;;;;;;;;;5126823;27;20745;-76
2021/12/14 01:25:42;;;;;;;;;;;;;;;;;;5111658;27;19929;-74
2021/12/14 01:28:08;;;;;;;;;;;;;;;;;;5129105;27;19934;-75
2021/12/14 01:30:35;;;;;;;;;;;;;;;;;;5129637;27;19919;-75
2021/12/14 01:33:03;;;;;;;;;;;;;;;;;;5126377;27;20408;-74
2021/12/14 01:35:31;;;;;;;;;;;;;;;;;;5121146;27;19923;-75
2021/12/14 01:40:53;;;;;;;;;;;;;;;;;;5127153;27;19930;-77
2021/12/14 01:43:19;;;;;;;;;;;;;;;;;;5129158;27;20113;-76
2021/12/14 01:45:45;;;;;;;;;;;;;;;;;;5127186;27;20006;-75
2021/12/14 01:48:10;;;;;;;;;;;;;;;;;;5128139;27;19942;-76
2021/12/14 01:50:36;;;;;;;;;;;;;;;;;;5126867;27;20343;-77
2021/12/14 01:53:02;;;;;;;;;;;;;;;;;;5128801;27;20441;-76
2021/12/14 01:55:28;;;;;;;;;;;;;;;;;;5126453;27;20314;-76
2021/12/14 01:57:54;;;;;;;;;;;;;;;;;;5125475;27;19919;-76
2021/12/14 02:00:20;;;;;;;;;;;;;;;;;;5130038;27;19945;-75
2021/12/14 02:02:46;;;;;;;;;;;;;;;;;;5128409;27;19927;-75
2021/12/14 02:05:12;;;;;;;;;;;;;;;;;;5134877;27;21580;-75
2021/12/14 02:07:38;;;;;;;;;;;;;;;;;;5112919;27;19923;-75
2021/12/14 02:10:04;;;;;;;;;;;;;;;;;;5132399;27;19919;-75
2021/12/14 02:12:31;;;;;;;;;;;;;;;;;;5115100;27;19919;-75
2021/12/14 02:14:57;;;;;;;;;;;;;;;;;;5145093;27;20335;-75
2021/12/14 02:17:24;;;;;;;;;;;;;;;;;;5115362;27;19934;-76
2021/12/14 02:19:50;;;;;;;;;;;;;;;;;;5130168;27;19925;-75
2021/12/14 02:22:16;;;;;;;;;;;;;;;;;;5130906;27;20356;-75
2021/12/14 02:24:41;;;;;;;;;;;;;;;;;;5130248;27;20356;-75
2021/12/14 02:27:07;;;;;;;;;;;;;;;;;;5112982;27;20422;-75
2021/12/14 02:29:33;;;;;;;;;;;;;;;;;;5139416;27;19977;-75
2021/12/14 02:31:59;;;;;;;;;;;;;;;;;;5148180;27;19923;-75
2021/12/14 02:34:25;;;;;;;;;;;;;;;;;;5130364;27;20026;-75
2021/12/14 02:36:52;;;;;;;;;;;;;;;;;;5131533;27;19938;-75
2021/12/14 02:40:03;;;;;;;;;;;;;;;;;;5113110;27;19927;-74
2021/12/14 02:42:10;;;;;;;;;;;;;;;;;;5124110;27;19927;-74
2021/12/14 02:44:36;;;;;;;;;;;;;;;;;;5150168;27;19919;-74
2021/12/14 02:47:02;;;;;;;;;;;;;;;;;;5143875;27;19925;-74
2021/12/14 02:49:29;;;;;;;;;;;;;;;;;;5130898;27;19966;-76
2021/12/14 02:51:55;;;;;;;;;;;;;;;;;;5131701;27;20344;-74
2021/12/14 02:54:21;;;;;;;;;;;;;;;;;;5127570;27;19962;-74
2021/12/14 02:56:47;;;;;;;;;;;;;;;;;;5129135;27;20353;-76
2021/12/14 02:59:13;;;;;;;;;;;;;;;;;;5145195;27;19948;-74
2021/12/14 03:01:38;;;;;;;;;;;;;;;;;;5111949;27;19923;-74
2021/12/14 03:04:04;;;;;;;;;;;;;;;;;;5128370;27;20003;-75
2021/12/14 03:06:30;;;;;;;;;;;;;;;;;;5147743;27;19919;-74
2021/12/14 03:09:08;;;;;;;;;;;;;;;;;;5134353;27;20494;-74
2021/12/14 03:11:34;;;;;;;;;;;;;;;;;;5132844;27;20018;-74
2021/12/14 03:14:00;;;;;;;;;;;;;;;;;;5133538;27;20013;-75
2021/12/14 03:16:26;;;;;;;;;;;;;;;;;;5134768;27;19926;-76
2021/12/14 03:18:52;;;;;;;;;;;;;;;;;;5152667;27;19919;-75
2021/12/14 03:21:18;;;;;;;;;;;;;;;;;;5135119;27;19934;-78
2021/12/14 03:23:43;;;;;;;;;;;;;;;;;;5133099;27;19967;-75
2021/12/14 03:26:09;;;;;;;;;;;;;;;;;;5152410;27;19972;-75
2021/12/14 03:28:35;;;;;;;;;;;;;;;;;;5117749;27;19923;-74
2021/12/14 03:31:01;;;;;;;;;;;;;;;;;;5152793;27;19934;-76
2021/12/14 03:33:27;;;;;;;;;;;;;;;;;;5132366;27;20110;-75
2021/12/14 03:35:53;;;;;;;;;;;;;;;;;;5132701;27;19922;-75
2021/12/14 03:38:19;;;;;;;;;;;;;;;;;;5134156;27;19987;-74
2021/12/14 03:40:45;;;;;;;;;;;;;;;;;;5144541;27;19919;-75
2021/12/14 03:43:11;;;;;;;;;;;;;;;;;;5133861;27;19926;-74
2021/12/14 03:45:37;;;;;;;;;;;;;;;;;;5151975;27;19927;-75
2021/12/14 03:48:03;;;;;;;;;;;;;;;;;;5116532;27;19971;-75
2021/12/14 03:50:29;;;;;;;;;;;;;;;;;;5133011;27;19919;-74
2021/12/14 03:52:55;;;;;;;;;;;;;;;;;;5134207;27;19943;-74
2021/12/14 03:55:21;;;;;;;;;;;;;;;;;;5133749;27;19925;-74
2021/12/14 03:57:47;;;;;;;;;;;;;;;;;;5161618;27;20018;-75
2021/12/14 04:00:13;;;;;;;;;;;;;;;;;;5151775;27;19979;-75
2021/12/14 04:02:39;;;;;;;;;;;;;;;;;;5134259;27;19927;-74
2021/12/14 04:05:09;;;;;;;;;;;;;;;;;;5132069;27;19927;-73
2021/12/14 04:07:35;;;;;;;;;;;;;;;;;;5133329;27;19946;-74
2021/12/14 04:10:02;;;;;;;;;;;;;;;;;;5151786;27;20271;-74
2021/12/14 04:12:28;;;;;;;;;;;;;;;;;;5132807;27;20168;-74
2021/12/14 04:14:54;;;;;;;;;;;;;;;;;;5148649;27;19929;-74
2021/12/14 04:17:20;;;;;;;;;;;;;;;;;;5130898;27;20014;-74
2021/12/14 04:19:45;;;;;;;;;;;;;;;;;;5149634;27;19942;-74
2021/12/14 04:22:12;;;;;;;;;;;;;;;;;;5142736;27;19926;-75
2021/12/14 04:24:38;;;;;;;;;;;;;;;;;;5130939;27;19926;-75
2021/12/14 04:27:04;;;;;;;;;;;;;;;;;;5130674;27;19927;-74
2021/12/14 04:29:30;;;;;;;;;;;;;;;;;;5130943;27;19919;-74
2021/12/14 04:31:56;;;;;;;;;;;;;;;;;;5125803;27;19955;-75
2021/12/14 04:34:22;;;;;;;;;;;;;;;;;;5145234;27;19919;-73
2021/12/14 04:36:50;;;;;;;;;;;;;;;;;;5161375;27;19918;-74
2021/12/14 04:52:50;;;;;;;;;;;;;;;;;;5161538;27;19934;-78
2021/12/14 04:55:17;;;;;;;;;;;;;;;;;;5147009;27;20320;-74
2021/12/14 04:57:43;;;;;;;;;;;;;;;;;;5146537;27;19959;-76
2021/12/14 05:00:09;;;;;;;;;;;;;;;;;;5114803;27;19919;-74
2021/12/14 05:02:35;;;;;;;;;;;;;;;;;;5129820;27;19937;-74
2021/12/14 05:05:01;;;;;;;;;;;;;;;;;;5127529;27;19920;-74
2021/12/14 05:09:59;;;;;;;;;;;;;;;;;;5130295;27;19923;-74
2021/12/14 05:12:25;;;;;;;;;;;;;;;;;;5131469;27;19973;-76
2021/12/14 05:14:51;;;;;;;;;;;;;;;;;;5130654;27;19919;-74
2021/12/14 05:17:17;;;;;;;;;;;;;;;;;;5143537;27;20388;-74
2021/12/14 05:19:43;;;;;;;;;;;;;;;;;;5129886;27;19919;-74
2021/12/14 05:22:09;;;;;;;;;;;;;;;;;;5125884;27;19923;-74
2021/12/14 05:24:35;;;;;;;;;;;;;;;;;;5126234;27;20006;-76
2021/12/14 05:27:01;;;;;;;;;;;;;;;;;;5149021;27;20396;-74
2021/12/14 05:29:27;;;;;;;;;;;;;;;;;;5130708;27;19954;-74
2021/12/14 05:31:53;;;;;;;;;;;;;;;;;;5131508;27;19985;-74
2021/12/14 05:34:19;;;;;;;;;;;;;;;;;;5128665;27;20389;-76
2021/12/14 05:36:45;;;;;;;64.22;38.13;;;;;;;;;;5124339;27;19927;-75
2021/12/14 05:44:33;;;;;;;68.05;38.80;;;;;;;;;;5125427;27;20058;-75
2021/12/14 05:47:00;;;;;;;77.07;43.88;;;;;;;;;;5127675;27;20087;-75
2021/12/14 05:49:27;;;;;;;66.68;38.83;;;;;;;;;;5131594;27;20952;-75
2021/12/14 05:51:54;;;;;;;71.03;41.53;;;;;;;;;;5147268;27;20039;-75
2021/12/14 05:54:26;;;;;;;66.15;39.85;;;;;;;;;;5109990;27;20051;-75
2021/12/14 05:56:53;;;;;;;70.40;42.72;;;;;;;;;;5128178;27;20035;-75
2021/12/14 05:59:24;;;;;;;74.55;41.83;;;;;;;;;;5128788;27;20129;-75
2021/12/14 06:01:51;;;;;;;70.38;41.83;;;;;;;;;;5113617;27;20042;-75
2021/12/14 06:04:17;;;;;;;77.20;43.05;;;;;;;;;;5125256;27;20038;-76
2021/12/14 06:06:45;;;;;;;70.80;43.13;;;;;;;;;;5127404;27;20055;-75
2021/12/14 06:09:13;;;;;;;73.85;40.47;;;;;;;;;;5126952;27;20042;-75
2021/12/14 06:11:40;;;;;;;74.93;40.72;;;;;;;;;;5129487;27;20397;-75
2021/12/14 06:14:13;;;;;;;70.80;42.40;;;;;;;;;;5128316;27;20139;-75
2021/12/14 06:16:39;;;;;;;78.05;43.55;;;;;;;;;;5126722;27;20043;-75
2021/12/14 06:19:11;;;;;;;78.15;42.97;;;;;;;;;;5128079;27;20066;-79
2021/12/14 06:21:37;;;;;;;74.05;42.10;;;;;;;;;;5128492;27;20042;-75
2021/12/14 06:24:04;;;;;;;79.10;45.53;;;;;;;;;;5125632;27;20129;-74
2021/12/14 06:26:39;;;;;;;83.90;44.53;;;;;;;;;;5124800;27;20039;-76
2021/12/14 06:29:07;;;;;;;80.03;45.55;;;;;;;;;;5126691;27;20502;-76
2021/12/14 06:31:33;;;;;;;80.30;45.35;;;;;;;;;;5126316;27;20059;-76
2021/12/14 06:34:10;;;;;;;87.63;46.20;;;;;;;;;;5133194;27;20503;-78
2021/12/14 06:37:06;;;;;;;80.05;43.15;;;;;;;;;;5149436;27;20042;-78
2021/12/14 06:39:52;;;;;;;78.20;43.80;;;;;;;;;;5160430;27;20069;-74
2021/12/14 06:42:18;;;;;;;82.55;44.55;;;;;;;;;;5115689;27;20404;-75
2021/12/14 06:44:46;;;;;;;92.55;47.47;;;;;;;;;;5134138;27;20050;-74
2021/12/14 06:47:12;;;;;;;88.95;47.05;;;;;;;;;;5140245;27;20047;-75
2021/12/14 06:49:38;;;;;;;86.32;45.58;;;;;;;;;;5136420;27;20043;-74
2021/12/14 06:52:04;;;;;;;92.05;48.33;;;;;;;;;;5123751;27;20053;-75
2021/12/14 06:54:30;;;;;;;99.68;48.97;;;;;;;;;;5132766;27;20470;-75
2021/12/14 06:56:59;;;;;;;95.32;48.25;;;;;;;;;;5150420;27;20043;-76
2021/12/14 06:59:26;;;;;;;97.70;49.83;;;;;;;;;;5165175;27;20045;-74
2021/12/14 07:02:00;;;;;;;93.97;48.25;;;;;;;;;;5152684;27;20039;-75
2021/12/14 07:04:31;;;;;;;101.70;49.85;;;;;;;;;;5134218;27;20130;-75
2021/12/14 07:06:59;;;;;;;107.82;50.90;;;;;;;;;;5133710;27;20063;-74
2021/12/14 07:09:27;;;;;;;106.72;50.20;;;;;;;;;;5148661;27;20038;-76
2021/12/14 07:11:59;;;;;;;113.05;51.35;;;;;;;;;;5133783;27;20048;-75
2021/12/14 07:14:29;;;;;;;107.45;51.40;;;;;;;;;;5134222;27;20129;-75
2021/12/14 07:16:56;;;;;;;111.38;53.22;;;;;;;;;;5135598;27;20081;-75
2021/12/14 07:19:42;;;;;;;115.18;52.72;;;;;;;;;;5135428;27;20055;-75
2021/12/14 07:22:31;;;;;;;111.10;51.45;;;;;;;;;;5111265;27;20429;-74
2021/12/14 07:25:00;;;;;;;110.78;51.15;;;;;;;;;;5156110;27;20043;-76
2021/12/14 07:27:31;;;;;;;110.75;52.20;;;;;;;;;;5133975;27;20047;-75
2021/12/14 07:30:18;;;;;;;108.78;51.35;;;;;;;;;;5132120;27;20060;-75
2021/12/14 07:32:46;;;;;;;110.60;52.47;;;;;;;;;;5117834;27;21798;-75
2021/12/14 07:35:17;;;;;;;135.38;53.45;;;;;;;;;;5132900;27;20138;-74
2021/12/14 07:37:43;;;;;;;124.63;54.70;;;;;;;;;;5152698;27;20038;-75
2021/12/14 07:40:10;;;;;;;123.40;53.38;;;;;;;;;;5139260;27;20047;-75
2021/12/14 07:42:36;;;;;;;119.13;55.72;;;;;;;;;;5121910;27;20043;-75
2021/12/14 07:45:03;;;;;;;125.00;53.33;;;;;;;;;;5161820;27;20039;-75
2021/12/14 07:47:29;;;;;;;131.80;53.88;;;;;;;;;;5154357;27;20055;-74
2021/12/14 07:49:56;;;;;;;125.03;55.20;;;;;;;;;;5127780;27;20066;-74
2021/12/14 07:52:24;;;;;;;129.23;56.00;;;;;;;;;;5143552;27;20485;-75
2021/12/14 07:54:55;;;;;;;129.23;54.38;;;;;;;;;;5149995;27;20093;-74
2021/12/14 07:57:27;;;;;;;142.27;58.63;;;;;;;;;;5146765;27;20089;-74
2021/12/14 07:59:59;;;;;;;136.68;56.95;;;;;;;;;;5101274;27;20055;-74
2021/12/14 08:02:29;;;;;;;152.02;59.58;;;;;;;;;;5150285;27;20555;-74
2021/12/14 08:04:57;;;;;;;153.25;57.58;;;;;;;;;;5135670;27;20039;-74
2021/12/14 08:07:34;;;;;;;155.02;57.90;;;;;;;;;;5120208;27;20112;-74
2021/12/14 08:10:06;;;;;;;160.15;58.90;;;;;;;;;;5127031;27;20043;-75
2021/12/14 08:12:32;;;;;;;175.52;59.35;;;;;;;;;;5130742;27;20088;-75
2021/12/14 08:15:04;;;;;;;157.80;59.35;;;;;;;;;;5114278;27;20084;-75
2021/12/14 08:17:31;;;;;;;178.30;62.00;;;;;;;;;;5150724;27;20042;-76
2021/12/14 08:19:57;;;;;;;158.82;57.78;;;;;;;;;;5118919;27;20039;-75
2021/12/14 08:22:32;;;;;;;161.10;57.97;;;;;;;;;;5099992;27;20047;-74
2021/12/14 08:24:58;;;;;;;157.20;56.65;;;;;;;;;;5116442;27;20046;-74
2021/12/14 08:27:26;;;;;;;162.68;59.05;;;;;;;;;;5118457;27;20057;-74
2021/12/14 08:29:54;;;;;;;167.10;60.95;;;;;;;;;;5122486;27;20070;-74
2021/12/14 08:32:23;;;;;;;161.23;57.53;;;;;;;;;;5122368;27;20047;-74
2021/12/14 08:34:51;;;;;;;161.55;57.40;;;;;;;;;;5139762;27;20490;-74
2021/12/14 08:37:37;;;;;;;170.77;58.60;;;;;;;;;;5121674;27;20061;-74
2021/12/14 08:40:11;;;;;;;132.73;54.83;;;;;;;;;;5119058;27;20117;-76
2021/12/14 08:42:47;;;;;;;146.38;56.70;;;;;;;;;;5121057;27;20407;-74
2021/12/14 08:45:27;;;;;;;134.95;52.95;;;;;;;;;;5124558;27;20039;-74
2021/12/14 08:47:56;;;;;;;126.65;54.00;;;;;;;;;;5125358;27;20042;-76
2021/12/14 08:50:22;;;;;;;136.07;54.63;;;;;;;;;;5128804;27;20041;-74
2021/12/14 08:52:50;;;;;;;125.10;52.20;;;;;;;;;;5125712;27;20705;-76
2021/12/14 08:55:17;;;;;;;127.82;52.22;;;;;;;;;;5125760;27;20047;-74
2021/12/14 08:57:43;;;;;;;140.75;53.20;;;;;;;;;;5130410;27;20042;-74
2021/12/14 09:00:17;;;;;;;137.38;53.80;;;;;;;;;;5129199;27;20091;-75
2021/12/14 09:02:45;;;;;;;128.02;51.03;;;;;;;;;;5127723;27;20079;-74
2021/12/14 09:05:18;;;;;;;138.60;54.45;;;;;;;;;;5109558;27;20042;-74
2021/12/14 09:07:44;;;;;;;134.73;52.10;;;;;;;;;;5139734;27;20050;-74
2021/12/14 09:10:13;;;;;;;140.68;55.00;;;;;;;;;;5128763;27;20034;-75
2021/12/14 09:12:41;;;;;;;137.85;53.38;;;;;;;;;;5124877;27;20122;-76
2021/12/14 09:15:13;;;;;;;143.30;52.70;;;;;;;;;;5124445;27;20104;-73
2021/12/14 09:17:39;;;;;;;127.55;50.97;;;;;;;;;;5110809;27;20043;-78
2021/12/14 09:20:09;;;;;;;134.38;52.88;;;;;;;;;;5127159;27;20479;-76
2021/12/14 09:22:41;;;;;;;136.88;54.45;;;;;;;;;;5129185;27;20137;-76
2021/12/14 09:25:08;;;;;;;129.52;53.47;;;;;;;;;;5125071;27;20035;-76
2021/12/14 09:27:34;;;;;;;132.32;52.28;;;;;;;;;;5116756;27;20131;-76
2021/12/14 09:30:01;;;;;;;129.70;52.47;;;;;;;;;;5106472;27;20031;-78
2021/12/14 09:32:28;;;;;;;126.25;51.13;;;;;;;;;;5148118;27;20050;-75
2021/12/14 09:34:59;;;;;;;141.25;54.17;;;;;;;;;;5118392;27;20047;-75
2021/12/14 09:37:26;;;;;;;143.88;53.95;;;;;;;;;;5116616;27;20043;-74
2021/12/14 09:39:55;;;;;;;140.52;54.80;;;;;;;;;;5117492;27;20522;-75
2021/12/14 09:42:26;;;;;;;150.98;55.30;;;;;;;;;;5139128;27;20081;-75
2021/12/14 09:44:54;;;;;;;147.35;56.63;;;;;;;;;;5121800;27;20370;-76
2021/12/14 09:47:22;;;;;;;145.77;54.30;;;;;;;;;;5124877;27;20422;-75
2021/12/14 09:49:49;;;;;;;141.35;55.75;;;;;;;;;;5119060;27;20042;-79
2021/12/14 09:52:20;;;;;;;143.32;54.45;;;;;;;;;;5119524;27;20488;-76
2021/12/14 09:54:46;;;;;;;141.73;54.55;;;;;;;;;;5121334;27;20054;-76
2021/12/14 09:57:15;;;;;;;146.25;54.95;;;;;;;;;;5098311;27;20051;-76
2021/12/14 09:59:41;;;;;;;151.95;56.35;;;;;;;;;;5118040;27;20118;-74
2021/12/14 10:02:28;;;;;;;133.70;53.88;;;;;;;;;;5117501;27;20577;-74
2021/12/14 10:04:57;;;;;;;148.35;54.63;;;;;;;;;;5114241;27;20047;-75
2021/12/14 10:07:24;;;;;;;167.00;58.25;;;;;;;;;;5120905;27;20387;-76
2021/12/14 10:09:51;;;;;;;155.73;58.35;;;;;;;;;;5139443;27;20039;-75
2021/12/14 10:14:57;;;;;;;198.77;72.65;;;;;;;;;;5122385;27;20042;-75
2021/12/14 10:17:24;;;;;;;164.35;56.75;;;;;;;;;;5133878;27;20047;-75
2021/12/14 10:19:50;;;;;;;160.32;58.28;;;;;;;;;;5116530;27;20386;-76
2021/12/14 10:22:23;;;;;;;157.20;56.10;;;;;;;;;;5115802;27;20474;-76
2021/12/14 10:24:51;;;;;;;152.82;55.30;;;;;;;;;;5117383;27;20056;-76
2021/12/14 10:27:19;;;;;;;143.38;53.38;;;;;;;;;;5105262;27;20050;-76
2021/12/14 10:29:47;;;;;;;142.35;51.75;;;;;;;;;;5113555;27;20043;-76
2021/12/14 10:32:16;;;;;;;163.85;54.85;;;;;;;;;;5147684;27;20102;-75
2021/12/14 10:34:47;;;;;;;142.73;53.05;;;;;;;;;;5107504;27;20095;-75
2021/12/14 10:37:19;;;;;;;135.02;52.17;;;;;;;;;;5121976;27;20062;-74
2021/12/14 10:45:18;;;;;;;161.93;54.15;;;;;;;;;;5118772;27;20082;-78
2021/12/14 10:47:45;;;;;;;158.93;54.03;;;;;;;;;;5108960;27;20106;-76
2021/12/14 10:50:14;;;;;;;140.90;51.17;;;;;;;;;;5139728;27;20054;-76
2021/12/14 10:52:42;;;;;;;131.10;49.95;;;;;;;;;;5119530;27;20043;-75
2021/12/14 10:55:11;;;;;;;143.35;50.72;;;;;;;;;;5101149;27;20047;-76
2021/12/14 10:57:38;;;;;;;151.50;49.80;;;;;;;;;;5121192;27;20464;-76
2021/12/14 11:00:10;;;;;;;131.95;50.25;;;;;;;;;;5141803;27;20054;-74
2021/12/14 11:02:41;;;;;;;130.75;49.63;;;;;;;;;;5126370;27;20389;-78
2021/12/14 11:05:15;;;;;;;132.07;48.42;;;;;;;;;;5138086;27;20042;-72
2021/12/14 11:07:43;;;;;;;142.77;49.47;;;;;;;;;;5120645;27;20139;-72
2021/12/14 11:10:12;;;;;;;133.48;49.78;;;;;;;;;;5136465;27;20050;-74
2021/12/14 11:12:40;;;;;;;134.93;48.95;;;;;;;;;;5107240;27;20055;-72
2021/12/14 11:15:14;;;;;;;134.98;47.50;;;;;;;;;;5120520;27;20047;-74
2021/12/14 11:20:26;;;;;;;135.68;47.85;;;;;;;;;;5126704;27;20054;-75
2021/12/14 11:23:00;;;;;;;121.68;45.08;;;;;;;;;;5124636;27;20050;-73
2021/12/14 11:25:28;;;;;;;131.32;47.70;;;;;;;;;;5123957;27;20035;-76
2021/12/14 11:27:58;;;;;;;118.43;44.28;;;;;;;;;;5134698;27;20034;-75
2021/12/14 11:30:30;;;;;;;115.63;44.28;;;;;;;;;;5125476;27;20062;-76
2021/12/14 11:33:06;;;;;;;131.82;45.90;;;;;;;;;;5126420;27;20039;-76
2021/12/14 11:35:33;;;;;;;127.07;43.83;;;;;;;;;;5110943;27;20043;-73
2021/12/14 11:38:01;;;;;;;114.53;41.67;;;;;;;;;;5124021;27;20039;-75
2021/12/14 11:40:29;;;;;;;116.90;43.08;;;;;;;;;;5111939;27;20515;-76
2021/12/14 11:43:08;;;;;;;100.50;40.53;;;;;;;;;;5145197;27;20038;-76
2021/12/14 11:45:36;;;;;;;109.35;41.20;;;;;;;;;;5124493;27;20784;-78
2021/12/14 11:48:03;;;;;;;102.22;39.08;;;;;;;;;;5126738;27;20482;-76
2021/12/14 11:50:38;;;;;;;110.63;39.55;;;;;;;;;;5115596;27;20087;-76
2021/12/14 11:53:05;;;;;;;103.65;39.15;;;;;;;;;;5130449;27;20447;-77
2021/12/14 11:55:43;;;;;;;114.43;39.58;;;;;;;;;;5128744;27;20047;-74
2021/12/14 11:58:23;;;;;;;95.68;36.05;;;;;;;;;;5132390;27;20034;-75
2021/12/14 12:00:52;;;;;;;113.13;38.15;;;;;;;;;;5132021;27;20110;-75
2021/12/14 12:03:20;;;;;;;97.63;36.92;;;;;;;;;;5124728;27;20050;-78
2021/12/14 12:06:00;;;;;;;113.22;37.00;;;;;;;;;;5133334;27;20062;-76
2021/12/14 12:11:13;;;;;;;124.07;38.80;;;;;;;;;;5150350;27;20062;-74
2021/12/14 12:13:40;;;;;;;102.43;38.75;;;;;;;;;;5130271;27;20125;-74
2021/12/14 12:16:15;;;;;;;130.15;40.72;;;;;;;;;;5129067;27;21981;-76
2021/12/14 12:19:01;;;;;;;128.32;40.50;;;;;;;;;;5132109;27;20478;-76
2021/12/14 12:21:31;;;;;;;148.13;40.50;;;;;;;;;;5125747;27;20057;-75
2021/12/14 12:23:57;;;;;;;143.95;42.10;;;;;;;;;;5131444;27;20047;-75
2021/12/14 12:26:28;;;;;;;171.00;42.85;;;;;;;;;;5140808;27;20039;-75
2021/12/14 12:28:58;;;;;;;137.30;40.25;;;;;;;;;;5132396;27;20448;-79
2021/12/14 12:31:24;;;;;;;138.23;39.15;;;;;;;;;;5126458;27;20100;-77
2021/12/14 12:34:00;;;;;;;112.90;36.70;;;;;;;;;;5139076;27;20063;-77
2021/12/14 12:36:29;;;;;;;128.45;37.63;;;;;;;;;;5130083;27;20050;-81
2021/12/14 12:39:01;;;;;;;114.47;35.70;;;;;;;;;;5126697;27;20585;-76
2021/12/14 12:41:56;;;;;;;105.50;33.28;;;;;;;;;;5148070;27;20043;-80
2021/12/14 12:44:30;;;;;;;93.68;30.85;;;;;;;;;;5109813;27;20055;-75
2021/12/14 12:46:59;;;;;;;79.28;28.48;;;;;;;;;;5128778;27;20386;-75
2021/12/14 12:49:25;;;;;;;95.85;30.60;;;;;;;;;;5127237;27;20050;-74
2021/12/14 12:51:54;;;;;;;98.63;37.10;;;;;;;;;;5127581;27;20550;-75
2021/12/14 12:54:24;;;;;;;78.35;33.90;;;;;;;;;;5131147;27;20488;-75
2021/12/14 12:57:12;;;;;;;78.68;33.15;;;;;;;;;;5125638;27;20428;-74
2021/12/14 12:59:50;;;;;;;68.68;31.13;;;;;;;;;;5126544;27;22151;-75
2021/12/14 13:02:22;;;;;;;75.80;32.07;;;;;;;;;;5122326;27;20423;-77
2021/12/14 13:04:51;;;;;;;71.13;30.63;;;;;;;;;;5129135;27;20691;-75
2021/12/14 13:07:17;;;;;;;55.88;26.63;;;;;;;;;;5113670;27;20424;-75
2021/12/14 13:10:00;;;;;;;65.80;28.90;;;;;;;;;;5143749;27;20911;-75
2021/12/14 13:12:49;;;;;;;56.15;28.25;;;;;;;;;;5110417;27;20422;-75
2021/12/14 13:15:34;;;;;;;61.92;28.25;;;;;;;;;;5102592;27;20432;-76
2021/12/14 13:18:19;;;;;;;60.83;27.88;;;;;;;;;;5146787;27;20432;-75
2021/12/14 13:20:46;;;;;;;71.60;30.55;;;;;;;;;;5126484;27;20798;-75
2021/12/14 13:23:12;;;;;;;69.30;31.27;;;;;;;;;;5147135;27;20465;-74
2021/12/14 13:25:40;;;;;;;63.23;29.47;;;;;;;;;;5129004;27;20455;-75
2021/12/14 13:28:06;;;;;;;77.67;33.13;;;;;;;;;;5146306;27;20435;-74
2021/12/14 13:30:32;;;;;;;73.95;32.15;;;;;;;;;;5111357;27;20998;-78
2021/12/14 13:32:59;;;;;;;85.72;34.63;;;;;;;;;;5130083;27;20439;-76
2021/12/14 13:35:28;;;;;;;91.40;35.60;;;;;;;;;;5111862;27;20424;-75
2021/12/14 13:38:00;;;;;;;104.63;36.88;;;;;;;;;;5154370;27;20506;-75
2021/12/14 13:40:28;;;;;;;90.93;35.90;;;;;;;;;;5153399;27;20425;-73
2021/12/14 13:42:59;;;;;;;105.68;37.00;;;;;;;;;;5148336;27;20463;-74
2021/12/14 13:45:27;;;;;;;100.82;37.70;;;;;;;;;;5126426;27;20550;-75
2021/12/14 13:47:54;;;;;;;90.22;34.92;;;;;;;;;;5110062;27;20420;-77
2021/12/14 13:50:40;;;;;;;90.88;35.20;;;;;;;;;;5125002;27;21398;-78
2021/12/14 13:53:07;;;;;;;85.68;35.38;;;;;;;;;;5125994;27;20416;-75
2021/12/14 13:55:42;;;;;;;91.13;35.28;;;;;;;;;;5126933;27;20412;-74
2021/12/14 13:58:08;;;;;;;79.65;32.80;;;;;;;;;;5123646;27;20484;-78
2021/12/14 14:00:35;;;;;;;78.30;33.33;;;;;;;;;;5124677;27;20431;-80
2021/12/14 14:03:01;;;;;;;98.82;36.90;;;;;;;;;;5111456;27;20826;-75
2021/12/14 14:05:27;;;;;;;100.80;37.07;;;;;;;;;;5122576;27;20414;-72
2021/12/14 14:07:55;;;;;;;95.75;36.97;;;;;;;;;;5122710;27;20424;-79
2021/12/14 14:10:22;;;;;;;105.43;37.65;;;;;;;;;;5129605;27;20524;-75
2021/12/14 14:12:50;;;;;;;87.72;34.97;;;;;;;;;;5110140;27;20413;-76
2021/12/14 14:15:18;;;;;;;88.50;34.90;;;;;;;;;;5129091;27;20421;-75
2021/12/14 14:17:49;;;;;;;93.53;36.10;;;;;;;;;;5129075;27;20425;-75
2021/12/14 14:20:19;;;;;;;96.47;36.85;;;;;;;;;;5109770;27;20462;-77
2021/12/14 14:22:46;;;;;;;101.32;37.55;;;;;;;;;;5117866;27;20459;-76
2021/12/14 14:25:16;;;;;;;107.90;37.85;;;;;;;;;;5119768;27;20421;-75
2021/12/14 14:27:45;;;;;;;109.97;37.90;;;;;;;;;;5149405;27;20428;-76
2021/12/14 14:30:21;;;;;;;98.05;35.45;;;;;;;;;;5108060;28;21053;-75
2021/12/14 14:33:09;;;;;;;113.80;36.85;;;;;;;;;;5112311;27;20415;-76
2021/12/14 14:35:49;;;;;;;92.57;34.60;;;;;;;;;;5129960;27;20442;-74
2021/12/14 14:38:28;;;;;;;92.90;34.63;;;;;;;;;;5122942;27;20450;-76
2021/12/14 14:40:55;;;;;;;117.22;37.97;;;;;;;;;;5125956;27;20456;-81
2021/12/14 14:43:22;;;;;;;71.13;29.92;;;;;;;;;;5100371;27;20878;-77
2021/12/14 14:45:48;;;;;;;66.03;29.17;;;;;;;;;;5124631;27;20842;-75
2021/12/14 14:48:24;;;;;;;82.72;31.55;;;;;;;;;;5135754;27;20448;-75
2021/12/14 14:50:50;;;;;;;80.95;31.23;;;;;;;;;;5118392;27;20421;-76
2021/12/14 14:53:18;;;;;;;87.15;31.85;;;;;;;;;;5157813;27;20500;-77
2021/12/14 14:55:46;;;;;;;77.78;31.23;;;;;;;;;;5125191;27;20929;-76
2021/12/14 14:58:19;;;;;;;61.30;27.23;;;;;;;;;;5126732;27;20494;-76
2021/12/14 15:00:49;;;;;;;59.03;26.65;;;;;;;;;;5130022;27;20424;-76
2021/12/14 15:03:18;;;;;;;53.75;24.92;;;;;;;;;;5132912;27;20428;-78
2021/12/14 15:05:49;;;;;;;60.97;27.00;;;;;;;;;;5158456;27;20445;-77
2021/12/14 15:08:19;;;;;;;55.60;25.42;;;;;;;;;;5105894;27;20429;-76
2021/12/14 15:10:51;;;;;;;46.47;24.50;;;;;;;;;;5109046;27;20437;-80
2021/12/14 15:13:19;;;;;;;56.80;26.33;;;;;;;;;;5151697;27;20439;-76
2021/12/14 15:16:04;;;;;;;60.85;28.58;;;;;;;;;;5125653;27;20515;-76
2021/12/14 15:18:49;;;;;;;69.45;29.10;;;;;;;;;;5112964;27;20409;-75
2021/12/14 15:21:36;;;;;;;70.28;29.50;;;;;;;;;;5129073;27;20909;-75
2021/12/14 15:24:21;;;;;;;73.68;30.77;;;;;;;;;;5101666;27;20428;-74
2021/12/14 15:27:09;;;;;;;70.10;29.98;;;;;;;;;;5110759;27;20449;-75
2021/12/14 15:29:38;;;;;;;55.88;26.63;;;;;;;;;;5127164;27;20422;-75
2021/12/14 15:32:16;;;;;;;58.53;26.93;;;;;;;;;;5127564;27;20416;-80
2021/12/14 15:34:53;;;;;;;60.67;27.45;;;;;;;;;;5131692;27;20419;-76
2021/12/14 15:37:39;;;;;;;48.03;24.73;;;;;;;;;;5128157;27;20417;-76
2021/12/14 15:40:25;;;;;;;42.80;23.08;;;;;;;;;;5156985;27;20513;-78
2021/12/14 15:42:57;;;;;;;42.25;21.70;;;;;;;;;;5090405;27;20424;-75
2021/12/14 15:45:42;;;;;;;42.22;22.67;;;;;;;;;;5150930;27;20421;-75
2021/12/14 15:48:13;;;;;;;42.60;22.13;;;;;;;;;;5120671;27;20429;-75
2021/12/14 15:50:41;;;;;;;33.20;20.20;;;;;;;;;;5128896;27;20482;-76